Página principal
METAR-TAF:

METAR-TAF

Aeroportos :

Fergana, Uzbequistão

latitude: 40-21-32N, longitude: 071-44-42E, altura: 625 m

Observação actual do tempo

O boletim foi feito há 41 minutos, às 16:30 UTC
Vento 2 kt com direcção variável
Temperatura 21°C
Humidade 33%
Pressão 1014 hPa
Visibilidade 10 km ou mais

METAR: UTFF 181630Z VRB02KT 9999 NSC 21/04 Q1014 R18/CLRD70

Hora: 22:11 (17:11 UTC)

Previsão

O boletim foi feito há 2 horas e 11 minutos, às 15:00 UTC
Previsão válida de 18 às 16 UTC a 19 às 01 UTC
Vento 10 kt de sudeste
Visibilidade 10 km ou mais
Temporariamente
de 18 às 16 UTC a 18 às 20 UTC
Vento 12 kt de oeste
Visibilidade: 4000 m
fumo

TAF: UTFF 181500Z 1816/1901 14010KT 9999 NSC TEMPO 1816/1820 28012KT 4000 FU

Observações e previsões do tempo de mais de 4000 aeroportos (mensagens METAR e TAF).

As estações disponíveis são os pontos amarelos e vermelhos sobre o mapa.

Mova o rato sobre o mapa para ver o nome da estação.

Depois clique no ponto para visualizar as observações e previsões meteorológicas.

Para alterar o mapa : clique nos botões verdes com uma cruz preta para aumentar o zoom; no botão verde com uma pitada de zoom; ou nas setas verdes para mapas adjacentes.


METAR-TAF: